WEATHER/FLIGHT PLANNING

Hattiesburg Radar

 

 

 

 

Weather Links

Flight Planning Links

 

METAR

2020/04/07 18:53 KHBG 071853Z AUTO 22006KT 10SM FEW011 BKN027 OVC043 24/22 A3002 RMK AO2 RAE49 SLP163 P0006 T02390222

TAF

2020/04/07 18:30 TAF KHBG 071728Z 0718/0818 17007KT P6SM SCT018 SCT024 FM072000 20009KT P6SM VCSH OVC025 FM072200 19008KT 4SM RA BR VCTS BKN015 OVC020CB FM080600 20006KT P6SM OVC007 FM081100 25003KT 4SM BR OVC005 FM081600 26007KT P6SM OVC015